createdAt,value
2023-10-24T00:01:01.232Z,1.70
2023-10-24T00:03:28.370Z,1.80
2023-10-24T00:05:55.235Z,2.23
2023-10-24T00:08:22.009Z,2.73
2023-10-24T00:10:48.842Z,3.30
2023-10-24T00:13:15.676Z,2.43
2023-10-24T00:15:42.616Z,3.10
2023-10-24T00:18:09.442Z,2.10
2023-10-24T00:20:36.379Z,2.00
2023-10-24T00:23:03.181Z,1.87
2023-10-24T00:25:30.041Z,2.10
2023-10-24T00:27:56.836Z,2.50
2023-10-24T00:30:23.636Z,1.90
2023-10-24T00:32:51.345Z,2.40
2023-10-24T00:35:18.747Z,2.87
2023-10-24T00:37:45.605Z,2.47
2023-10-24T00:40:12.923Z,2.57
2023-10-24T00:42:39.701Z,2.93
2023-10-24T00:45:07.549Z,2.27
2023-10-24T00:47:34.687Z,3.03
2023-10-24T00:50:01.501Z,2.33
2023-10-24T00:52:28.294Z,2.67
2023-10-24T00:54:55.338Z,2.40
2023-10-24T00:57:22.176Z,2.63
2023-10-24T00:59:48.939Z,2.40
2023-10-24T01:02:15.860Z,1.90
2023-10-24T01:04:42.873Z,2.13
2023-10-24T01:07:09.849Z,2.00
2023-10-24T01:09:36.675Z,2.00
2023-10-24T01:12:03.760Z,2.37
2023-10-24T01:14:30.459Z,1.83
2023-10-24T01:16:57.288Z,2.03
2023-10-24T01:19:24.132Z,1.90
2023-10-24T01:21:51.578Z,2.43
2023-10-24T01:24:18.495Z,1.27
2023-10-24T01:26:45.774Z,1.67
2023-10-24T01:29:12.695Z,2.20
2023-10-24T01:31:39.703Z,2.27
2023-10-24T01:34:06.557Z,2.10
2023-10-24T01:36:33.396Z,1.80
2023-10-24T01:39:00.208Z,3.97
2023-10-24T01:41:27.040Z,5.53
2023-10-24T01:43:53.861Z,4.00
2023-10-24T01:46:20.689Z,2.40
2023-10-24T01:48:47.995Z,2.40
2023-10-24T01:51:14.836Z,1.87
2023-10-24T01:53:41.598Z,2.07
2023-10-24T01:56:10.213Z,2.17
2023-10-24T01:58:37.090Z,2.07
2023-10-24T02:01:04.155Z,2.50
2023-10-24T02:03:30.951Z,1.70
2023-10-24T02:05:57.961Z,1.70
2023-10-24T02:08:24.996Z,1.50
2023-10-24T02:10:52.259Z,1.67
2023-10-24T02:13:19.214Z,2.33
2023-10-24T02:15:46.238Z,2.20
2023-10-24T02:18:12.977Z,2.87
2023-10-24T02:20:39.933Z,2.70
2023-10-24T02:23:06.704Z,2.07
2023-10-24T02:25:38.050Z,1.53
2023-10-24T02:28:05.711Z,1.30
2023-10-24T02:30:32.548Z,1.53
2023-10-24T02:33:01.991Z,1.40
2023-10-24T02:35:29.120Z,3.00
2023-10-24T02:37:56.013Z,1.87
2023-10-24T02:40:22.836Z,2.97
2023-10-24T02:42:49.628Z,2.03
2023-10-24T02:45:16.759Z,2.13
2023-10-24T02:47:43.699Z,1.60
2023-10-24T02:50:10.484Z,2.10
2023-10-24T02:52:38.437Z,2.23
2023-10-24T02:55:06.579Z,2.80
2023-10-24T02:57:33.376Z,2.87
2023-10-24T03:00:00.186Z,1.30
2023-10-24T03:02:27.197Z,2.00
2023-10-24T03:04:54.018Z,1.87
2023-10-24T03:07:20.910Z,1.53
2023-10-24T03:09:47.850Z,1.40
2023-10-24T03:12:14.781Z,2.17
2023-10-24T03:14:42.421Z,1.90
2023-10-24T03:17:09.814Z,1.53
2023-10-24T03:19:36.711Z,1.40
2023-10-24T03:22:03.741Z,1.70
2023-10-24T03:24:30.571Z,1.77
2023-10-24T03:26:57.381Z,2.40
2023-10-24T03:29:24.274Z,2.03
2023-10-24T03:31:51.213Z,1.97
2023-10-24T03:34:18.073Z,1.40
2023-10-24T03:36:44.915Z,2.97
2023-10-24T03:39:11.715Z,1.43
2023-10-24T03:41:38.470Z,1.97
2023-10-24T03:44:05.699Z,2.23
2023-10-24T03:46:32.604Z,1.60
2023-10-24T03:48:59.543Z,1.60
2023-10-24T03:51:26.374Z,1.70
2023-10-24T03:53:54.332Z,1.83
2023-10-24T03:56:21.169Z,2.73
2023-10-24T03:58:47.981Z,1.70
2023-10-24T04:01:14.962Z,1.70
2023-10-24T04:03:41.857Z,3.30
2023-10-24T04:06:14.584Z,1.67
2023-10-24T04:08:41.457Z,1.63
2023-10-24T04:11:15.606Z,1.97
2023-10-24T04:13:45.195Z,9.20
2023-10-24T04:16:12.486Z,11.00
2023-10-24T04:18:42.721Z,7.93
2023-10-24T04:21:09.526Z,7.13
2023-10-24T04:23:37.043Z,6.33
2023-10-24T04:26:07.155Z,6.43
2023-10-24T04:28:34.181Z,5.90
2023-10-24T04:31:01.101Z,4.90
2023-10-24T04:33:28.080Z,5.03
2023-10-24T04:35:55.089Z,2.57
2023-10-24T04:38:22.012Z,4.37
2023-10-24T04:40:51.209Z,2.77
2023-10-24T04:43:18.085Z,1.80
2023-10-24T04:45:44.973Z,1.60
2023-10-24T04:48:11.876Z,2.40
2023-10-24T04:50:42.234Z,1.67
2023-10-24T04:53:09.077Z,1.70
2023-10-24T04:55:36.824Z,1.60
2023-10-24T04:58:07.120Z,2.10
2023-10-24T05:00:33.943Z,3.10
2023-10-24T05:03:01.585Z,1.53
2023-10-24T05:05:28.937Z,2.47
2023-10-24T05:07:55.807Z,2.07
2023-10-24T05:10:22.653Z,3.10
2023-10-24T05:12:49.469Z,1.70
2023-10-24T05:15:16.352Z,1.73
2023-10-24T05:17:43.146Z,2.07
2023-10-24T05:20:10.477Z,1.80
2023-10-24T05:22:37.361Z,1.80
2023-10-24T05:25:04.520Z,2.27
2023-10-24T05:27:33.076Z,2.33
2023-10-24T05:29:59.918Z,2.57
2023-10-24T05:32:26.827Z,2.00
2023-10-24T05:34:53.846Z,2.00
2023-10-24T05:37:20.816Z,2.33
2023-10-24T05:39:47.637Z,2.67
2023-10-24T05:42:14.648Z,2.07
2023-10-24T05:44:41.527Z,2.97
2023-10-24T05:47:08.704Z,3.30
2023-10-24T05:49:35.700Z,4.73
2023-10-24T05:52:02.641Z,2.67
2023-10-24T05:54:29.480Z,2.90
2023-10-24T05:56:56.693Z,2.77
2023-10-24T05:59:23.521Z,2.57
2023-10-24T06:01:50.349Z,2.00
2023-10-24T06:04:17.190Z,2.40
2023-10-24T06:06:44.018Z,2.80
2023-10-24T06:09:14.704Z,2.37
2023-10-24T06:11:41.502Z,4.07
2023-10-24T06:14:08.254Z,1.77
2023-10-24T06:16:35.098Z,1.83
2023-10-24T06:19:01.945Z,1.97
2023-10-24T06:21:29.906Z,1.77
2023-10-24T06:23:56.916Z,3.30
2023-10-24T06:26:23.707Z,4.03
2023-10-24T06:28:50.663Z,2.53
2023-10-24T06:31:18.034Z,1.77
2023-10-24T06:33:44.901Z,2.23
2023-10-24T06:36:11.793Z,3.07
2023-10-24T06:38:38.688Z,2.00
2023-10-24T06:41:09.740Z,2.37
2023-10-24T06:43:36.660Z,2.13
2023-10-24T06:46:05.392Z,1.80
2023-10-24T06:48:32.729Z,5.87
2023-10-24T06:51:00.152Z,2.93
2023-10-24T06:53:26.965Z,2.73
2023-10-24T06:56:00.392Z,4.83
2023-10-24T06:58:27.502Z,2.00
2023-10-24T07:00:54.816Z,2.20
2023-10-24T07:03:22.206Z,2.17
2023-10-24T07:05:55.313Z,2.03
2023-10-24T07:08:22.246Z,2.50
2023-10-24T07:10:49.428Z,2.07
2023-10-24T07:13:16.469Z,2.30
2023-10-24T07:15:43.340Z,2.40
2023-10-24T07:18:11.614Z,1.70
2023-10-24T07:20:38.848Z,2.50
2023-10-24T07:23:05.912Z,4.63
2023-10-24T07:25:35.932Z,3.20
2023-10-24T07:28:03.585Z,1.90
2023-10-24T07:30:31.068Z,4.20
2023-10-24T07:32:58.089Z,3.00
2023-10-24T07:35:24.967Z,3.93
2023-10-24T07:37:51.828Z,3.50
2023-10-24T07:40:18.768Z,5.10
2023-10-24T07:42:45.555Z,3.90
2023-10-24T07:45:12.741Z,3.10
2023-10-24T07:47:40.001Z,3.00
2023-10-24T07:50:08.686Z,3.37
2023-10-24T07:52:35.514Z,2.90
2023-10-24T07:55:02.345Z,3.53
2023-10-24T07:57:30.857Z,2.00
2023-10-24T07:59:58.550Z,3.20
2023-10-24T08:02:25.390Z,2.00
2023-10-24T08:04:52.684Z,1.40
2023-10-24T08:07:19.703Z,1.90
2023-10-24T08:09:46.437Z,1.57
2023-10-24T08:12:13.463Z,2.27
2023-10-24T08:14:40.767Z,4.93
2023-10-24T08:17:08.009Z,3.20
2023-10-24T08:19:34.959Z,2.60
2023-10-24T08:22:01.825Z,3.97
2023-10-24T08:24:28.675Z,2.70
2023-10-24T08:27:09.821Z,2.23
2023-10-24T08:29:38.361Z,3.10
2023-10-24T08:32:11.199Z,2.67
2023-10-24T08:34:41.622Z,1.50
2023-10-24T08:37:09.761Z,1.47
2023-10-24T08:39:36.560Z,1.30
2023-10-24T08:42:03.506Z,2.70
2023-10-24T08:44:30.380Z,2.93
2023-10-24T08:46:57.408Z,1.93
2023-10-24T08:49:24.552Z,3.67
2023-10-24T08:51:52.533Z,2.17
2023-10-24T08:54:19.344Z,2.00
2023-10-24T08:56:46.126Z,2.70
2023-10-24T08:59:13.218Z,4.37
2023-10-24T09:01:41.840Z,1.97
2023-10-24T09:04:09.011Z,2.37
2023-10-24T09:06:36.207Z,3.90
2023-10-24T09:09:03.133Z,18.60
2023-10-24T09:12:15.468Z,65.13
2023-10-24T09:14:53.713Z,82.57
2023-10-24T09:17:22.128Z,74.80
2023-10-24T09:19:49.534Z,67.17
2023-10-24T09:22:17.246Z,49.17
2023-10-24T09:24:48.201Z,37.13
2023-10-24T09:27:18.391Z,28.20
2023-10-24T09:29:45.151Z,23.93
2023-10-24T09:32:18.751Z,21.10
2023-10-24T09:34:46.640Z,14.13
2023-10-24T09:37:14.689Z,10.70
2023-10-24T09:39:55.766Z,8.97
2023-10-24T09:42:30.027Z,9.47
2023-10-24T09:45:01.826Z,5.73
2023-10-24T09:47:28.958Z,5.07
2023-10-24T09:49:56.756Z,5.33
2023-10-24T09:52:25.339Z,5.83
2023-10-24T09:54:52.770Z,4.77
2023-10-24T09:57:21.538Z,5.50
2023-10-24T09:59:48.950Z,3.90
2023-10-24T10:02:17.622Z,2.87
2023-10-24T10:04:45.166Z,3.00
2023-10-24T10:07:15.049Z,4.47
2023-10-24T10:09:44.295Z,4.70
2023-10-24T10:12:13.501Z,2.43
2023-10-24T10:14:53.830Z,2.17
2023-10-24T10:17:42.113Z,3.13
2023-10-24T10:20:12.026Z,2.60
2023-10-24T10:23:12.520Z,2.90
2023-10-24T10:25:51.003Z,3.07
2023-10-24T10:29:10.473Z,6.23
2023-10-24T10:32:40.035Z,2.83
2023-10-24T10:34:47.452Z,2.97
2023-10-24T10:37:14.512Z,2.80
2023-10-24T10:39:41.597Z,2.20
2023-10-24T10:42:32.538Z,3.50
2023-10-24T10:44:59.295Z,2.43
2023-10-24T10:47:28.409Z,3.70
2023-10-24T10:49:58.340Z,1.93
2023-10-24T10:52:46.819Z,4.13
2023-10-24T10:55:15.918Z,3.17
2023-10-24T10:57:58.060Z,5.20
2023-10-24T11:00:38.380Z,2.00
2023-10-24T11:03:26.317Z,1.60
2023-10-24T11:05:54.098Z,1.50
2023-10-24T11:08:23.782Z,1.90
2023-10-24T11:10:54.065Z,2.60
2023-10-24T11:13:38.073Z,1.83
2023-10-24T11:16:25.482Z,1.97
2023-10-24T11:18:57.742Z,2.10
2023-10-24T11:21:24.770Z,1.50
2023-10-24T11:23:52.244Z,2.20
2023-10-24T11:26:19.097Z,2.07
2023-10-24T11:28:46.015Z,2.97
2023-10-24T11:31:27.421Z,1.73
2023-10-24T11:33:54.701Z,1.90
2023-10-24T11:36:22.296Z,1.30
2023-10-24T11:38:49.974Z,1.20
2023-10-24T11:41:17.126Z,0.90
2023-10-24T11:43:46.628Z,1.70
2023-10-24T11:46:13.637Z,1.67
2023-10-24T11:48:40.423Z,2.53
2023-10-24T11:51:07.362Z,1.63
2023-10-24T11:53:35.398Z,2.30
2023-10-24T11:56:02.301Z,2.57
2023-10-24T11:58:35.427Z,1.20
2023-10-24T12:01:03.090Z,1.17
2023-10-24T12:03:47.039Z,0.93
2023-10-24T12:06:16.640Z,1.63
2023-10-24T12:08:44.386Z,1.20
2023-10-24T12:11:11.465Z,1.33
2023-10-24T12:13:38.413Z,1.20
2023-10-24T12:16:05.638Z,1.27
2023-10-24T12:18:32.791Z,1.23
2023-10-24T12:21:00.576Z,1.13
2023-10-24T12:23:27.369Z,2.37
2023-10-24T12:25:54.354Z,1.40
2023-10-24T12:28:21.439Z,1.73
2023-10-24T12:30:48.302Z,1.20
2023-10-24T12:33:15.189Z,1.33
2023-10-24T12:35:41.970Z,1.03
2023-10-24T12:38:08.789Z,1.40
2023-10-24T12:40:35.683Z,1.33
2023-10-24T12:43:02.433Z,2.33
2023-10-24T12:45:29.188Z,1.50
2023-10-24T12:47:58.010Z,1.00
2023-10-24T12:50:25.257Z,1.10
2023-10-24T12:52:52.643Z,1.47
2023-10-24T12:55:21.727Z,2.50
2023-10-24T12:57:48.546Z,1.67
2023-10-24T13:00:15.564Z,1.17
2023-10-24T13:02:42.362Z,0.80
2023-10-24T13:05:09.539Z,1.10
2023-10-24T13:07:36.313Z,0.87
2023-10-24T13:10:03.382Z,1.10
2023-10-24T13:12:30.253Z,1.40
2023-10-24T13:14:57.073Z,2.23
2023-10-24T13:17:23.957Z,2.60
2023-10-24T13:19:51.795Z,2.20
2023-10-24T13:22:18.862Z,2.57
2023-10-24T13:24:45.619Z,1.40
2023-10-24T13:27:13.331Z,2.13
2023-10-24T13:29:40.347Z,2.13
2023-10-24T13:32:07.585Z,2.00
2023-10-24T13:37:04.240Z,3.60
2023-10-24T13:39:31.171Z,3.37
2023-10-24T13:41:57.947Z,1.40
2023-10-24T13:44:27.773Z,3.50
2023-10-24T13:46:56.236Z,2.37
2023-10-24T13:49:23.212Z,3.03
2023-10-24T13:51:50.689Z,3.93
2023-10-24T13:54:17.547Z,3.40
2023-10-24T13:56:44.403Z,2.67
2023-10-24T13:59:11.207Z,1.70
2023-10-24T14:01:38.074Z,2.10
2023-10-24T14:04:05.189Z,2.60
2023-10-24T14:06:32.216Z,2.37
2023-10-24T14:08:59.132Z,2.73
2023-10-24T14:11:25.904Z,3.60
2023-10-24T14:13:52.884Z,2.97
2023-10-24T14:16:19.782Z,3.47
2023-10-24T14:18:46.742Z,1.50
2023-10-24T14:21:13.615Z,1.20
2023-10-24T14:23:40.690Z,3.70
2023-10-24T14:26:11.157Z,1.40
2023-10-24T14:28:39.985Z,1.70
2023-10-24T14:31:07.034Z,1.50
2023-10-24T14:33:33.984Z,1.13
2023-10-24T14:36:00.785Z,2.43
2023-10-24T14:38:27.634Z,3.57
2023-10-24T14:40:54.528Z,5.93
2023-10-24T14:43:22.389Z,2.77
2023-10-24T14:45:49.182Z,2.33
2023-10-24T14:48:16.037Z,3.40
2023-10-24T14:50:42.916Z,2.23
2023-10-24T14:53:11.050Z,4.70
2023-10-24T14:55:38.200Z,2.97
2023-10-24T14:58:05.797Z,2.80
2023-10-24T15:00:34.320Z,5.03
2023-10-24T15:03:03.660Z,2.37
2023-10-24T15:05:30.586Z,2.33
2023-10-24T15:07:57.515Z,3.80
2023-10-24T15:10:24.378Z,2.50
2023-10-24T15:12:51.231Z,1.47
2023-10-24T15:15:19.012Z,1.50
2023-10-24T15:17:46.160Z,1.67
2023-10-24T15:20:13.216Z,1.13
2023-10-24T15:22:40.081Z,1.77
2023-10-24T15:25:07.892Z,2.97
2023-10-24T15:27:34.847Z,3.53
2023-10-24T15:30:01.767Z,2.80
2023-10-24T15:32:29.016Z,1.90
2023-10-24T15:34:56.009Z,3.60
2023-10-24T15:37:23.038Z,1.97
2023-10-24T15:39:51.134Z,1.80
2023-10-24T15:42:19.216Z,2.10
2023-10-24T15:44:46.803Z,2.50
2023-10-24T15:47:14.818Z,1.87
2023-10-24T15:49:41.710Z,2.07
2023-10-24T15:52:08.487Z,3.50
2023-10-24T15:54:37.800Z,2.43
2023-10-24T15:57:05.609Z,3.73
2023-10-24T15:59:32.639Z,3.30
2023-10-24T16:02:00.124Z,1.63
2023-10-24T16:04:27.394Z,1.70
2023-10-24T16:06:54.861Z,4.30
2023-10-24T16:09:21.752Z,1.97
2023-10-24T16:11:48.649Z,2.17
2023-10-24T16:14:15.521Z,3.60
2023-10-24T16:16:42.979Z,2.83
2023-10-24T16:19:09.818Z,2.10
2023-10-24T16:21:36.680Z,2.80
2023-10-24T16:24:04.010Z,3.80
2023-10-24T16:26:31.718Z,3.40
2023-10-24T16:28:58.519Z,3.97
2023-10-24T16:31:25.304Z,3.53
2023-10-24T16:33:52.081Z,4.30
2023-10-24T16:36:19.092Z,3.70
2023-10-24T16:38:45.877Z,5.90
2023-10-24T16:41:12.741Z,3.43
2023-10-24T16:43:40.906Z,2.53
2023-10-24T16:46:08.011Z,2.67
2023-10-24T16:48:35.214Z,2.80
2023-10-24T16:51:02.048Z,1.70
2023-10-24T16:53:28.807Z,2.00
2023-10-24T16:55:59.325Z,1.87
2023-10-24T16:58:26.311Z,2.40
2023-10-24T17:00:56.231Z,2.42
2023-10-24T17:03:23.219Z,2.80
2023-10-24T17:05:50.124Z,3.27
2023-10-24T17:08:16.994Z,3.17
2023-10-24T17:10:44.697Z,3.27
2023-10-24T17:13:11.849Z,3.23
2023-10-24T17:15:39.738Z,4.60
2023-10-24T17:18:06.610Z,3.13
2023-10-24T17:20:35.305Z,2.50
2023-10-24T17:23:02.865Z,2.87
2023-10-24T17:25:30.070Z,3.20
2023-10-24T17:27:56.975Z,3.17
2023-10-24T17:30:25.796Z,3.50
2023-10-24T17:32:56.899Z,2.70
2023-10-24T17:35:24.284Z,3.77
2023-10-24T17:37:54.805Z,2.03
2023-10-24T17:40:21.918Z,2.30
2023-10-24T17:42:52.775Z,2.13
2023-10-24T17:45:19.772Z,2.20
2023-10-24T17:47:46.724Z,2.50
2023-10-24T17:50:13.706Z,2.20
2023-10-24T17:52:40.835Z,2.10
2023-10-24T17:55:07.964Z,3.27
2023-10-24T17:57:34.761Z,1.60
2023-10-24T18:00:01.672Z,1.63
2023-10-24T18:02:28.801Z,2.40
2023-10-24T18:04:55.890Z,1.63
2023-10-24T18:07:27.962Z,2.33
2023-10-24T18:09:55.260Z,3.80
2023-10-24T18:12:22.047Z,2.70
2023-10-24T18:14:48.894Z,1.80
2023-10-24T18:17:15.770Z,1.43
2023-10-24T18:19:43.968Z,2.03
2023-10-24T18:22:10.870Z,1.83
2023-10-24T18:24:37.730Z,3.73
2023-10-24T18:27:04.860Z,2.27
2023-10-24T18:29:32.006Z,2.03
2023-10-24T18:31:58.902Z,3.83
2023-10-24T18:34:25.849Z,3.60
2023-10-24T18:36:52.593Z,3.13
2023-10-24T18:39:19.434Z,2.70
2023-10-24T18:41:46.161Z,2.70
2023-10-24T18:44:14.834Z,2.30
2023-10-24T18:46:43.608Z,2.47
2023-10-24T18:49:10.854Z,2.60
2023-10-24T18:51:38.564Z,1.97
2023-10-24T18:54:05.502Z,1.70
2023-10-24T18:56:34.373Z,1.87
2023-10-24T18:59:02.883Z,4.13
2023-10-24T19:01:29.841Z,1.80
2023-10-24T19:03:56.796Z,1.40
2023-10-24T19:06:23.814Z,1.40
2023-10-24T19:08:50.645Z,1.00
2023-10-24T19:11:17.616Z,1.10
2023-10-24T19:13:44.670Z,2.50
2023-10-24T19:16:11.969Z,1.03
2023-10-24T19:18:39.114Z,0.60
2023-10-24T19:21:07.182Z,0.70
2023-10-24T19:23:34.404Z,0.63
2023-10-24T19:26:01.988Z,0.73
2023-10-24T19:28:29.100Z,0.50
2023-10-24T19:30:56.329Z,0.57
2023-10-24T19:33:24.184Z,0.77
2023-10-24T19:35:51.193Z,0.50
2023-10-24T19:38:19.406Z,0.50
2023-10-24T19:40:46.481Z,0.53
2023-10-24T19:43:13.596Z,0.67
2023-10-24T19:45:40.900Z,0.50
2023-10-24T19:48:18.143Z,0.70
2023-10-24T19:50:45.614Z,0.70
2023-10-24T19:53:12.727Z,0.83
2023-10-24T19:55:41.588Z,0.30
2023-10-24T19:58:08.925Z,0.50
2023-10-24T20:00:36.212Z,0.80
2023-10-24T20:03:04.151Z,0.43
2023-10-24T20:05:31.468Z,0.93
2023-10-24T20:07:58.747Z,0.80
2023-10-24T20:11:38.282Z,0.77
2023-10-24T20:13:18.061Z,0.97
2023-10-24T20:15:46.551Z,1.13
2023-10-24T20:18:13.800Z,1.13
2023-10-24T20:20:41.019Z,0.70
2023-10-24T20:23:08.380Z,0.70
2023-10-24T20:25:35.581Z,0.50
2023-10-24T20:28:02.540Z,0.50
2023-10-24T20:30:30.092Z,0.40
2023-10-24T20:32:57.156Z,0.60
2023-10-24T20:35:27.993Z,0.40
2023-10-24T20:37:55.915Z,0.63
2023-10-24T20:40:23.056Z,0.37
2023-10-24T20:42:50.200Z,0.53
2023-10-24T20:45:17.738Z,0.30
2023-10-24T20:47:44.860Z,0.30
2023-10-24T20:50:12.535Z,0.30
2023-10-24T20:52:39.458Z,0.30
2023-10-24T20:55:06.637Z,0.40
2023-10-24T20:57:33.678Z,0.50
2023-10-24T21:00:00.684Z,0.30
2023-10-24T21:02:27.671Z,0.30
2023-10-24T21:04:54.638Z,0.30
2023-10-24T21:07:21.462Z,0.30
2023-10-24T21:09:48.519Z,0.30
2023-10-24T21:12:15.724Z,0.40
2023-10-24T21:14:42.630Z,0.20
2023-10-24T21:17:09.457Z,0.30
2023-10-24T21:19:36.348Z,0.30
2023-10-24T21:22:03.339Z,0.30
2023-10-24T21:24:31.595Z,0.20
2023-10-24T21:26:59.314Z,0.20
2023-10-24T21:29:28.332Z,0.30
2023-10-24T21:31:56.257Z,0.30
2023-10-24T21:34:23.695Z,0.40
2023-10-24T21:36:50.679Z,0.30
2023-10-24T21:39:17.611Z,0.30
2023-10-24T21:41:44.483Z,0.40
2023-10-24T21:44:11.348Z,0.40
2023-10-24T21:46:38.299Z,0.93
2023-10-24T21:49:05.291Z,0.40
2023-10-24T21:51:32.208Z,0.20
2023-10-24T21:53:59.162Z,0.60
2023-10-24T21:56:25.948Z,0.30
2023-10-24T21:58:52.761Z,0.30
2023-10-24T22:01:19.993Z,0.30
2023-10-24T22:03:47.203Z,0.30
2023-10-24T22:06:14.458Z,0.30
2023-10-24T22:08:41.325Z,0.43
2023-10-24T22:11:08.243Z,0.30
2023-10-24T22:13:35.059Z,0.30
2023-10-24T22:16:02.214Z,0.40
2023-10-24T22:18:29.165Z,0.33
2023-10-24T22:20:56.129Z,0.40
2023-10-24T22:23:22.961Z,0.40
2023-10-24T22:25:49.861Z,0.40
2023-10-24T22:28:16.765Z,0.40
2023-10-24T22:30:43.657Z,0.57
2023-10-24T22:33:10.683Z,0.50
2023-10-24T22:35:38.420Z,0.50
2023-10-24T22:38:05.241Z,0.40
2023-10-24T22:40:32.044Z,0.40
2023-10-24T22:42:58.884Z,0.40
2023-10-24T22:45:26.383Z,0.27
2023-10-24T22:47:53.769Z,0.40
2023-10-24T22:50:23.363Z,0.40
2023-10-24T22:52:51.660Z,0.30
2023-10-24T22:55:18.854Z,0.33
2023-10-24T22:57:46.321Z,0.30
2023-10-24T23:00:14.051Z,0.50
2023-10-24T23:02:41.076Z,0.50
2023-10-24T23:05:08.587Z,0.30
2023-10-24T23:07:35.494Z,0.30
2023-10-24T23:10:03.652Z,0.30
2023-10-24T23:12:34.431Z,0.30
2023-10-24T23:15:04.458Z,0.40
2023-10-24T23:17:31.414Z,4.00
2023-10-24T23:19:58.371Z,0.30
2023-10-24T23:22:28.051Z,0.40
2023-10-24T23:24:55.206Z,0.30
2023-10-24T23:27:22.763Z,0.40
2023-10-24T23:29:49.722Z,0.30
2023-10-24T23:32:16.697Z,0.30
2023-10-24T23:34:43.473Z,0.40
2023-10-24T23:37:10.325Z,0.30
2023-10-24T23:39:37.276Z,0.40
2023-10-24T23:42:04.634Z,0.30
2023-10-24T23:44:31.934Z,0.37
2023-10-24T23:46:58.854Z,0.40
2023-10-24T23:49:25.692Z,3.80
2023-10-24T23:51:52.570Z,0.40
2023-10-24T23:54:19.440Z,0.30
2023-10-24T23:56:46.258Z,0.30
2023-10-24T23:59:13.113Z,0.30
